createdAt,value
2022-11-29T00:00:50.128Z,-20287.56
2022-11-29T00:01:52.426Z,-20284.97
2022-11-29T00:02:54.884Z,-20286.81
2022-11-29T00:03:57.647Z,-20285.53
2022-11-29T00:04:59.812Z,-20284.97
2022-11-29T00:06:09.285Z,-20286.81
2022-11-29T00:07:11.416Z,-20287.56
2022-11-29T00:08:13.639Z,-20286.25
2022-11-29T00:09:15.753Z,-20285.34
2022-11-29T00:10:18.179Z,-20284.59
2022-11-29T00:11:41.909Z,-20284.59
2022-11-29T00:12:47.364Z,-20282.94
2022-11-29T00:13:49.457Z,-20283.31
2022-11-29T00:14:51.594Z,-20283.69
2022-11-29T00:15:53.679Z,-20284.97
2022-11-29T00:17:03.175Z,-20286.44
2022-11-29T00:18:06.769Z,-20287.75
2022-11-29T00:19:10.887Z,-20286.44
2022-11-29T00:20:13.428Z,-20285.69
2022-11-29T00:21:15.574Z,-20285.16
2022-11-29T00:22:17.739Z,-20284.78
2022-11-29T00:23:19.871Z,-20283.13
2022-11-29T00:24:22.223Z,-20284.97
2022-11-29T00:25:24.433Z,-20284.97
2022-11-29T00:26:26.784Z,-20282.00
2022-11-29T00:27:29.369Z,-20280.34
2022-11-29T00:28:31.652Z,-20279.78
2022-11-29T00:29:33.761Z,-20279.97
2022-11-29T00:30:35.951Z,-20282.75
2022-11-29T00:31:38.338Z,-20280.91
2022-11-29T00:32:40.526Z,-20281.28
2022-11-29T00:33:42.760Z,-20282.75
2022-11-29T00:34:45.170Z,-20285.34
2022-11-29T00:35:47.444Z,-20284.59
2022-11-29T00:36:49.591Z,-20282.94
2022-11-29T00:37:51.761Z,-20283.13
2022-11-29T00:38:54.044Z,-20283.50
2022-11-29T00:39:56.191Z,-20282.56
2022-11-29T00:40:58.323Z,-20282.75
2022-11-29T00:42:00.531Z,-20281.63
2022-11-29T00:43:02.686Z,-20284.59
2022-11-29T00:44:04.856Z,-20283.13
2022-11-29T00:45:07.521Z,-20282.19
2022-11-29T00:46:11.855Z,-20280.91
2022-11-29T00:47:14.049Z,-20281.09
2022-11-29T00:48:16.166Z,-20282.38
2022-11-29T00:49:18.463Z,-20281.63
2022-11-29T00:50:20.663Z,-20280.16
2022-11-29T00:51:22.890Z,-20276.09
2022-11-29T00:52:25.003Z,-20277.78
2022-11-29T00:53:27.488Z,-20277.03
2022-11-29T00:54:29.676Z,-20277.78
2022-11-29T00:55:31.818Z,-20277.78
2022-11-29T00:56:33.929Z,-20278.13
2022-11-29T00:57:36.087Z,-20279.25
2022-11-29T00:58:38.402Z,-20280.16
2022-11-29T00:59:40.541Z,-20282.38
2022-11-29T01:00:42.789Z,-20279.44
2022-11-29T01:01:44.964Z,-20280.53
2022-11-29T01:02:47.233Z,-20282.94
2022-11-29T01:03:49.523Z,-20280.16
2022-11-29T01:04:51.659Z,-20281.63
2022-11-29T01:06:18.446Z,-20282.56
2022-11-29T01:07:20.663Z,-20283.84
2022-11-29T01:08:22.868Z,-20280.53
2022-11-29T01:09:25.018Z,-20280.16
2022-11-29T01:10:27.568Z,-20276.28
2022-11-29T01:11:29.782Z,-20278.88
2022-11-29T01:12:36.647Z,-20280.72
2022-11-29T01:13:39.442Z,-20281.63
2022-11-29T01:14:41.942Z,-20283.84
2022-11-29T01:15:44.217Z,-20283.50
2022-11-29T01:16:46.444Z,-20283.13
2022-11-29T01:17:49.420Z,-20283.50
2022-11-29T01:18:51.667Z,-20284.97
2022-11-29T01:19:53.976Z,-20283.69
2022-11-29T01:21:06.615Z,-20285.88
2022-11-29T01:22:08.814Z,-20285.88
2022-11-29T01:23:10.939Z,-20284.97
2022-11-29T01:24:13.059Z,-20284.97
2022-11-29T01:25:15.494Z,-20282.38
2022-11-29T01:26:21.298Z,-20281.28
2022-11-29T01:27:23.454Z,-20282.38
2022-11-29T01:28:26.142Z,-20283.69
2022-11-29T01:29:28.250Z,-20285.69
2022-11-29T01:30:30.452Z,-20285.69
2022-11-29T01:31:37.480Z,-20286.81
2022-11-29T01:32:39.649Z,-20285.34
2022-11-29T01:33:42.454Z,-20287.56
2022-11-29T01:34:44.855Z,-20289.41
2022-11-29T01:35:54.595Z,-20290.13
2022-11-29T01:36:56.750Z,-20289.03
2022-11-29T01:37:58.872Z,-20289.22
2022-11-29T01:39:02.823Z,-20289.94
2022-11-29T01:40:05.710Z,-20287.75
2022-11-29T01:41:12.860Z,-20287.56
2022-11-29T01:42:15.208Z,-20288.28
2022-11-29T01:43:18.469Z,-20288.84
2022-11-29T01:44:20.772Z,-20287.75
2022-11-29T01:45:26.342Z,-20287.75
2022-11-29T01:46:30.680Z,-20285.34
2022-11-29T01:47:33.856Z,-20287.56
2022-11-29T01:48:36.001Z,-20285.69
2022-11-29T01:49:42.147Z,-20286.44
2022-11-29T01:50:44.373Z,-20287.56
2022-11-29T01:51:51.636Z,-20289.03
2022-11-29T01:52:53.800Z,-20288.66
2022-11-29T01:53:57.069Z,-20288.84
2022-11-29T01:55:03.873Z,-20290.50
2022-11-29T01:56:07.502Z,-20286.06
2022-11-29T01:57:10.336Z,-20287.19
2022-11-29T01:58:12.803Z,-20287.56
2022-11-29T01:59:19.222Z,-20286.44
2022-11-29T02:00:21.766Z,-20285.16
2022-11-29T02:01:24.239Z,-20286.44
2022-11-29T02:02:35.406Z,-20287.19
2022-11-29T02:03:37.648Z,-20286.81
2022-11-29T02:04:43.427Z,-20291.25
2022-11-29T02:05:50.235Z,-20290.50
2022-11-29T02:06:52.365Z,-20286.81
2022-11-29T02:07:57.829Z,-20288.66
2022-11-29T02:09:00.247Z,-20288.09
2022-11-29T02:10:02.966Z,-20289.22
2022-11-29T02:11:27.591Z,-20287.75
2022-11-29T02:12:44.621Z,-20286.81
2022-11-29T02:14:05.303Z,-20289.03
2022-11-29T02:15:13.547Z,-20288.28
2022-11-29T02:16:31.998Z,-20289.41
2022-11-29T02:17:43.092Z,-20289.41
2022-11-29T02:19:03.827Z,-20288.28
2022-11-29T02:20:14.850Z,-20287.00
2022-11-29T02:21:48.107Z,-20288.66
2022-11-29T02:22:53.200Z,-20288.09
2022-11-29T02:24:30.061Z,-20285.69
2022-11-29T02:25:35.083Z,-20281.63
2022-11-29T02:26:55.352Z,-20282.19
2022-11-29T02:28:35.802Z,-20282.75
2022-11-29T02:29:46.902Z,-20283.84
2022-11-29T02:31:20.281Z,-20283.69
2022-11-29T02:32:34.481Z,-20279.97
2022-11-29T02:33:55.291Z,-20281.28
2022-11-29T02:35:20.441Z,-20282.00
2022-11-29T02:37:18.150Z,-20283.84
2022-11-29T02:38:45.169Z,-20283.31
2022-11-29T02:40:09.692Z,-20285.88
2022-11-29T02:41:36.908Z,-20285.69
2022-11-29T02:43:05.839Z,-20288.28
2022-11-29T02:44:22.983Z,-20285.88
2022-11-29T02:45:58.499Z,-20287.56
2022-11-29T02:47:28.786Z,-20288.28
2022-11-29T02:49:09.776Z,-20288.66
2022-11-29T02:50:11.941Z,-20286.81
2022-11-29T02:51:35.798Z,-20284.97
2022-11-29T02:53:02.928Z,-20287.91
2022-11-29T02:54:20.457Z,-20285.69
2022-11-29T02:55:34.618Z,-20287.56
2022-11-29T02:56:53.887Z,-20287.19
2022-11-29T02:58:14.108Z,-20287.19
2022-11-29T02:59:34.136Z,-20282.38
2022-11-29T03:00:46.848Z,-20281.47
2022-11-29T03:02:03.165Z,-20284.22
2022-11-29T03:03:05.309Z,-20284.78
2022-11-29T03:04:34.948Z,-20289.03
2022-11-29T03:05:51.281Z,-20290.13
2022-11-29T03:07:34.554Z,-20287.19
2022-11-29T03:08:51.560Z,-20287.19
2022-11-29T03:10:05.160Z,-20289.03
2022-11-29T03:11:20.652Z,-20289.03
2022-11-29T03:12:45.823Z,-20290.31
2022-11-29T03:13:51.405Z,-20287.91
2022-11-29T03:14:59.397Z,-20288.66
2022-11-29T03:16:13.562Z,-20287.38
2022-11-29T03:17:34.260Z,-20288.47
2022-11-29T03:18:56.269Z,-20286.44
2022-11-29T03:20:35.829Z,-20285.69
2022-11-29T03:21:49.509Z,-20283.13
2022-11-29T03:23:09.707Z,-20283.69
2022-11-29T03:24:37.252Z,-20285.34
2022-11-29T03:25:45.921Z,-20282.75
2022-11-29T03:26:56.102Z,-20282.00
2022-11-29T03:28:11.146Z,-20283.50
2022-11-29T03:29:55.049Z,-20286.44
2022-11-29T03:31:29.433Z,-20283.13
2022-11-29T03:33:04.012Z,-20286.44
2022-11-29T03:34:11.530Z,-20285.34
2022-11-29T03:35:30.797Z,-20287.00
2022-11-29T03:36:45.387Z,-20287.19
2022-11-29T03:38:08.835Z,-20285.16
2022-11-29T03:39:19.137Z,-20286.44
2022-11-29T03:40:34.854Z,-20285.34
2022-11-29T03:42:02.241Z,-20286.81
2022-11-29T03:43:09.460Z,-20284.97
2022-11-29T03:44:40.382Z,-20288.09
2022-11-29T03:46:10.941Z,-20289.41
2022-11-29T03:47:17.334Z,-20290.31
2022-11-29T03:48:31.691Z,-20289.75
2022-11-29T03:49:52.000Z,-20287.19
2022-11-29T03:50:57.634Z,-20287.91
2022-11-29T03:52:19.545Z,-20289.41
2022-11-29T03:53:46.166Z,-20288.28
2022-11-29T03:55:03.470Z,-20289.03
2022-11-29T03:56:28.861Z,-20290.50
2022-11-29T03:57:45.212Z,-20290.88
2022-11-29T03:59:05.967Z,-20287.19
2022-11-29T04:00:10.747Z,-20286.44
2022-11-29T04:01:21.776Z,-20284.97
2022-11-29T04:03:01.011Z,-20286.25
2022-11-29T04:04:33.934Z,-20285.69
2022-11-29T04:06:02.656Z,-20284.97
2022-11-29T04:07:14.851Z,-20288.66
2022-11-29T04:08:54.239Z,-20288.28
2022-11-29T04:10:18.057Z,-20287.91
2022-11-29T04:11:54.641Z,-20287.75
2022-11-29T04:13:02.942Z,-20287.00
2022-11-29T04:14:34.793Z,-20288.66
2022-11-29T04:15:55.348Z,-20284.59
2022-11-29T04:17:24.822Z,-20286.44
2022-11-29T04:18:43.805Z,-20285.88
2022-11-29T04:20:07.705Z,-20289.75
2022-11-29T04:21:32.714Z,-20289.56
2022-11-29T04:22:43.669Z,-20289.56
2022-11-29T04:23:51.494Z,-20289.75
2022-11-29T04:25:16.318Z,-20292.34
2022-11-29T04:26:24.215Z,-20289.41
2022-11-29T04:27:48.566Z,-20288.66
2022-11-29T04:29:11.445Z,-20289.56
2022-11-29T04:30:18.994Z,-20288.66
2022-11-29T04:31:33.400Z,-20288.28
2022-11-29T04:32:41.212Z,-20291.97
2022-11-29T04:34:20.489Z,-20292.34
2022-11-29T04:36:07.686Z,-20291.97
2022-11-29T04:37:18.603Z,-20289.03
2022-11-29T04:38:26.745Z,-20288.66
2022-11-29T04:39:59.385Z,-20287.91
2022-11-29T04:41:01.472Z,-20283.50
2022-11-29T04:42:15.412Z,-20284.59
2022-11-29T04:43:29.735Z,-20283.50
2022-11-29T04:44:46.398Z,-20284.59
2022-11-29T04:45:57.636Z,-20287.19
2022-11-29T04:47:11.698Z,-20289.75
2022-11-29T04:48:25.331Z,-20289.75
2022-11-29T04:49:57.152Z,-20289.03
2022-11-29T04:50:59.272Z,-20285.34
2022-11-29T04:52:29.793Z,-20286.81
2022-11-29T04:53:53.521Z,-20284.78
2022-11-29T04:55:08.119Z,-20290.13
2022-11-29T04:56:31.221Z,-20290.13
2022-11-29T04:57:44.931Z,-20287.91
2022-11-29T04:59:05.834Z,-20296.03
2022-11-29T05:00:15.547Z,-20293.81
2022-11-29T05:01:48.081Z,-20294.94
2022-11-29T05:02:59.289Z,-20293.81
2022-11-29T05:04:43.658Z,-20295.13
2022-11-29T05:05:59.186Z,-20294.94
2022-11-29T05:07:16.101Z,-20293.28
2022-11-29T05:08:45.217Z,-20293.09
2022-11-29T05:10:32.283Z,-20291.41
2022-11-29T05:11:55.925Z,-20292.72
2022-11-29T05:13:34.117Z,-20293.28
2022-11-29T05:14:54.703Z,-20292.34
2022-11-29T05:16:15.702Z,-20291.59
2022-11-29T05:17:50.503Z,-20292.91
2022-11-29T05:19:17.294Z,-20292.72
2022-11-29T05:20:40.999Z,-20292.72
2022-11-29T05:21:49.041Z,-20292.16
2022-11-29T05:23:09.915Z,-20290.13
2022-11-29T05:24:19.292Z,-20291.59
2022-11-29T05:25:49.555Z,-20288.09
2022-11-29T05:27:15.272Z,-20289.41
2022-11-29T05:28:32.598Z,-20290.50
2022-11-29T05:29:46.211Z,-20290.50
2022-11-29T05:31:00.250Z,-20291.41
2022-11-29T05:32:32.553Z,-20290.69
2022-11-29T05:33:47.457Z,-20291.25
2022-11-29T05:34:52.081Z,-20289.75
2022-11-29T05:36:07.963Z,-20288.09
2022-11-29T05:37:37.294Z,-20291.06
2022-11-29T05:38:50.553Z,-20293.28
2022-11-29T05:40:14.670Z,-20291.97
2022-11-29T05:41:35.685Z,-20289.03
2022-11-29T05:42:43.066Z,-20291.25
2022-11-29T05:43:55.521Z,-20293.63
2022-11-29T05:45:14.429Z,-20291.78
2022-11-29T05:46:42.884Z,-20290.88
2022-11-29T05:47:57.560Z,-20290.69
2022-11-29T05:49:21.226Z,-20290.50
2022-11-29T05:50:37.945Z,-20287.75
2022-11-29T05:52:16.647Z,-20289.22
2022-11-29T05:53:28.027Z,-20289.03
2022-11-29T05:54:37.973Z,-20290.13
2022-11-29T05:55:51.924Z,-20290.13
2022-11-29T05:57:35.624Z,-20290.50
2022-11-29T05:58:55.934Z,-20292.72
2022-11-29T06:00:01.137Z,-20292.72
2022-11-29T06:01:21.685Z,-20294.19
2022-11-29T06:02:26.644Z,-20294.56
2022-11-29T06:03:47.128Z,-20294.19
2022-11-29T06:05:15.505Z,-20293.09
2022-11-29T06:06:47.986Z,-20293.63
2022-11-29T06:08:17.999Z,-20293.28
2022-11-29T06:09:35.324Z,-20290.31
2022-11-29T06:10:40.554Z,-20289.03
2022-11-29T06:11:48.647Z,-20290.50
2022-11-29T06:13:15.701Z,-20289.41
2022-11-29T06:15:16.389Z,-20291.41
2022-11-29T06:16:27.807Z,-20291.25
2022-11-29T06:17:48.872Z,-20290.88
2022-11-29T06:18:56.782Z,-20291.97
2022-11-29T06:19:58.802Z,-20292.34
2022-11-29T06:21:30.540Z,-20294.19
2022-11-29T06:22:57.338Z,-20295.66
2022-11-29T06:24:25.538Z,-20296.97
2022-11-29T06:25:53.305Z,-20299.00
2022-11-29T06:27:10.467Z,-20299.38
2022-11-29T06:28:24.803Z,-20298.25
2022-11-29T06:29:39.295Z,-20297.88
2022-11-29T06:31:23.063Z,-20298.63
2022-11-29T06:32:34.070Z,-20296.41
2022-11-29T06:33:36.075Z,-20298.63
2022-11-29T06:34:51.753Z,-20298.25
2022-11-29T06:36:23.172Z,-20298.25
2022-11-29T06:37:34.563Z,-20299.38
2022-11-29T06:38:37.193Z,-20296.97
2022-11-29T06:39:39.514Z,-20297.88
2022-11-29T06:40:42.077Z,-20297.88
2022-11-29T06:41:44.837Z,-20295.66
2022-11-29T06:42:48.879Z,-20294.94
2022-11-29T06:43:51.556Z,-20295.66
2022-11-29T06:44:54.006Z,-20294.19
2022-11-29T06:46:05.242Z,-20295.13
2022-11-29T06:47:17.921Z,-20295.66
2022-11-29T06:48:27.455Z,-20293.09
2022-11-29T06:49:43.318Z,-20292.34
2022-11-29T06:51:03.232Z,-20291.25
2022-11-29T06:52:20.249Z,-20291.41
2022-11-29T06:53:31.232Z,-20291.06
2022-11-29T06:55:15.403Z,-20291.25
2022-11-29T06:56:33.028Z,-20290.50
2022-11-29T06:57:47.420Z,-20291.25
2022-11-29T06:59:20.595Z,-20291.59
2022-11-29T07:00:27.091Z,-20293.09
2022-11-29T07:01:51.680Z,-20292.34
2022-11-29T07:03:22.706Z,-20294.56
2022-11-29T07:04:31.329Z,-20292.72
2022-11-29T07:05:35.138Z,-20291.06
2022-11-29T07:06:37.529Z,-20290.88
2022-11-29T07:07:41.194Z,-20290.69
2022-11-29T07:08:45.197Z,-20291.25
2022-11-29T07:09:49.607Z,-20292.72
2022-11-29T07:10:54.874Z,-20296.03
2022-11-29T07:11:57.452Z,-20292.53
2022-11-29T07:12:59.864Z,-20295.66
2022-11-29T07:14:02.332Z,-20294.19
2022-11-29T07:15:05.078Z,-20292.34
2022-11-29T07:16:31.608Z,-20294.56
2022-11-29T07:17:45.144Z,-20294.19
2022-11-29T07:18:53.899Z,-20292.34
2022-11-29T07:20:04.792Z,-20293.81
2022-11-29T07:21:20.738Z,-20293.09
2022-11-29T07:22:40.799Z,-20294.19
2022-11-29T07:24:02.744Z,-20294.19
2022-11-29T07:25:23.249Z,-20292.72
2022-11-29T07:26:59.413Z,-20294.00
2022-11-29T07:28:11.345Z,-20294.19
2022-11-29T07:29:23.955Z,-20293.28
2022-11-29T07:30:51.066Z,-20292.34
2022-11-29T07:32:14.351Z,-20294.56
2022-11-29T07:33:54.912Z,-20296.03
2022-11-29T07:35:17.615Z,-20294.94
2022-11-29T07:36:40.925Z,-20294.56
2022-11-29T07:38:24.334Z,-20296.41
2022-11-29T07:39:59.527Z,-20299.00
2022-11-29T07:41:11.815Z,-20298.81
2022-11-29T07:42:31.352Z,-20297.16
2022-11-29T07:44:01.362Z,-20297.69
2022-11-29T07:45:27.570Z,-20297.34
2022-11-29T07:46:30.113Z,-20297.16
2022-11-29T07:47:35.705Z,-20296.41
2022-11-29T07:48:38.459Z,-20297.53
2022-11-29T07:49:40.910Z,-20295.84
2022-11-29T07:50:43.917Z,-20296.78
2022-11-29T07:51:46.123Z,-20296.78
2022-11-29T07:52:49.112Z,-20296.41
2022-11-29T07:53:51.260Z,-20297.34
2022-11-29T07:54:53.416Z,-20297.34
2022-11-29T07:55:55.686Z,-20296.41
2022-11-29T07:56:57.842Z,-20296.78
2022-11-29T07:58:00.113Z,-20296.78
2022-11-29T07:59:02.701Z,-20296.03
2022-11-29T08:00:05.853Z,-20297.16
2022-11-29T08:01:13.649Z,-20296.22
2022-11-29T08:02:26.441Z,-20297.16
2022-11-29T08:03:29.220Z,-20294.75
2022-11-29T08:04:31.424Z,-20296.78
2022-11-29T08:05:33.704Z,-20295.47
2022-11-29T08:06:36.341Z,-20297.53
2022-11-29T08:07:40.165Z,-20297.34
2022-11-29T08:08:44.115Z,-20296.78
2022-11-29T08:09:46.821Z,-20299.38
2022-11-29T08:10:49.329Z,-20298.63
2022-11-29T08:11:51.600Z,-20297.88
2022-11-29T08:12:54.335Z,-20299.00
2022-11-29T08:13:58.496Z,-20300.84
2022-11-29T08:15:00.893Z,-20300.66
2022-11-29T08:16:03.369Z,-20300.47
2022-11-29T08:17:05.613Z,-20300.28
2022-11-29T08:18:07.733Z,-20302.31
2022-11-29T08:19:09.842Z,-20301.38
2022-11-29T08:20:13.373Z,-20301.22
2022-11-29T08:21:18.091Z,-20298.63
2022-11-29T08:22:20.357Z,-20299.91
2022-11-29T08:23:22.527Z,-20301.56
2022-11-29T08:24:26.242Z,-20302.13
2022-11-29T08:25:28.399Z,-20300.84
2022-11-29T08:26:31.771Z,-20303.78
2022-11-29T08:27:35.831Z,-20303.97
2022-11-29T08:28:38.403Z,-20302.31
2022-11-29T08:29:40.603Z,-20300.09
2022-11-29T08:30:42.757Z,-20301.38
2022-11-29T08:31:45.430Z,-20299.38
2022-11-29T08:32:51.373Z,-20300.28
2022-11-29T08:33:53.954Z,-20300.09
2022-11-29T08:34:56.082Z,-20301.94
2022-11-29T08:36:08.211Z,-20301.22
2022-11-29T08:37:10.492Z,-20300.28
2022-11-29T08:38:12.678Z,-20300.47
2022-11-29T08:39:14.830Z,-20301.75
2022-11-29T08:40:17.472Z,-20301.75
2022-11-29T08:41:19.594Z,-20301.94
2022-11-29T08:42:21.779Z,-20301.94
2022-11-29T08:43:23.907Z,-20301.75
2022-11-29T08:44:26.133Z,-20302.69
2022-11-29T08:45:28.425Z,-20303.06
2022-11-29T08:46:50.480Z,-20305.28
2022-11-29T08:47:52.593Z,-20303.44
2022-11-29T08:48:54.697Z,-20304.16
2022-11-29T08:50:02.833Z,-20303.44
2022-11-29T08:51:06.489Z,-20304.53
2022-11-29T08:52:26.949Z,-20304.53
2022-11-29T08:53:44.729Z,-20303.78
2022-11-29T08:54:47.137Z,-20302.13
2022-11-29T08:55:50.488Z,-20302.88
2022-11-29T08:58:15.595Z,-20306.38
2022-11-29T08:59:17.782Z,-20306.19
2022-11-29T09:00:21.315Z,-20307.84
2022-11-29T09:01:23.719Z,-20308.59
2022-11-29T09:02:25.924Z,-20308.59
2022-11-29T09:03:46.350Z,-20309.31
2022-11-29T09:04:48.537Z,-20308.97
2022-11-29T09:05:50.963Z,-20310.25
2022-11-29T09:06:53.133Z,-20308.22
2022-11-29T09:07:55.483Z,-20307.84
2022-11-29T09:08:58.171Z,-20310.06
2022-11-29T09:10:05.019Z,-20308.97
2022-11-29T09:11:09.338Z,-20311.16
2022-11-29T09:12:11.927Z,-20310.81
2022-11-29T09:13:14.885Z,-20311.91
2022-11-29T09:14:17.783Z,-20311.16
2022-11-29T09:15:20.325Z,-20310.63
2022-11-29T09:16:25.568Z,-20313.03
2022-11-29T09:17:28.183Z,-20312.28
2022-11-29T09:18:30.663Z,-20311.53
2022-11-29T09:19:33.305Z,-20313.94
2022-11-29T09:20:35.697Z,-20310.81
2022-11-29T09:21:38.079Z,-20308.59
2022-11-29T09:22:40.645Z,-20310.44
2022-11-29T09:23:44.054Z,-20310.63
2022-11-29T09:24:47.401Z,-20310.06
2022-11-29T09:25:49.957Z,-20311.91
2022-11-29T09:26:52.100Z,-20311.53
2022-11-29T09:27:57.263Z,-20311.53
2022-11-29T09:29:03.726Z,-20310.81
2022-11-29T09:30:06.615Z,-20311.53
2022-11-29T09:31:12.363Z,-20311.91
2022-11-29T09:32:14.539Z,-20313.03
2022-11-29T09:33:17.133Z,-20313.38
2022-11-29T09:34:19.359Z,-20314.50
2022-11-29T09:35:21.631Z,-20314.69
2022-11-29T09:36:28.397Z,-20315.78
2022-11-29T09:37:31.533Z,-20314.88
2022-11-29T09:38:34.851Z,-20314.50
2022-11-29T09:39:37.019Z,-20314.13
2022-11-29T09:40:46.885Z,-20313.94
2022-11-29T09:42:27.221Z,-20315.59
2022-11-29T09:43:44.232Z,-20314.88
2022-11-29T09:44:55.373Z,-20313.03
2022-11-29T09:46:06.932Z,-20313.03
2022-11-29T09:47:15.050Z,-20313.38
2022-11-29T09:48:20.251Z,-20314.50
2022-11-29T09:50:01.100Z,-20316.91
2022-11-29T09:51:25.537Z,-20315.22
2022-11-29T09:52:52.324Z,-20314.50
2022-11-29T09:54:11.384Z,-20314.13
2022-11-29T09:55:16.257Z,-20312.47
2022-11-29T09:56:38.767Z,-20315.97
2022-11-29T09:57:43.951Z,-20316.53
2022-11-29T09:58:52.890Z,-20314.50
2022-11-29T10:00:01.790Z,-20314.09
2022-11-29T10:01:09.471Z,-20316.91
2022-11-29T10:02:21.972Z,-20318.56
2022-11-29T10:03:40.022Z,-20317.28
2022-11-29T10:04:47.991Z,-20318.75
2022-11-29T10:05:57.419Z,-20315.59
2022-11-29T10:07:38.240Z,-20317.44
2022-11-29T10:08:46.093Z,-20320.03
2022-11-29T10:09:55.319Z,-20317.81
2022-11-29T10:11:12.171Z,-20317.63
2022-11-29T10:12:31.786Z,-20317.44
2022-11-29T10:13:35.903Z,-20318.00
2022-11-29T10:14:57.718Z,-20320.03
2022-11-29T10:16:09.992Z,-20323.00
2022-11-29T10:17:18.604Z,-20321.88
2022-11-29T10:18:38.496Z,-20321.50
2022-11-29T10:19:50.740Z,-20322.81
2022-11-29T10:20:58.464Z,-20323.72
2022-11-29T10:22:24.922Z,-20323.53
2022-11-29T10:23:41.825Z,-20325.38
2022-11-29T10:24:49.752Z,-20324.84
2022-11-29T10:25:54.225Z,-20321.69
2022-11-29T10:26:56.591Z,-20321.50
2022-11-29T10:27:59.086Z,-20321.31
2022-11-29T10:29:01.379Z,-20320.97
2022-11-29T10:30:06.451Z,-20320.59
2022-11-29T10:31:19.300Z,-20319.28
2022-11-29T10:32:25.388Z,-20318.56
2022-11-29T10:33:32.700Z,-20321.50
2022-11-29T10:34:35.177Z,-20320.78
2022-11-29T10:35:37.614Z,-20321.31
2022-11-29T10:36:44.628Z,-20319.66
2022-11-29T10:38:07.615Z,-20319.13
2022-11-29T10:39:37.214Z,-20321.13
2022-11-29T10:40:42.019Z,-20320.97
2022-11-29T10:41:44.309Z,-20321.88
2022-11-29T10:42:49.674Z,-20322.25
2022-11-29T10:43:54.407Z,-20321.50
2022-11-29T10:44:58.224Z,-20321.69
2022-11-29T10:46:02.417Z,-20322.44
2022-11-29T10:47:10.516Z,-20323.53
2022-11-29T10:48:17.255Z,-20323.53
2022-11-29T10:49:23.622Z,-20323.72
2022-11-29T10:50:27.964Z,-20324.47
2022-11-29T10:51:31.482Z,-20324.47
2022-11-29T10:52:33.919Z,-20321.50
2022-11-29T10:53:37.473Z,-20323.00
2022-11-29T10:54:42.564Z,-20324.09
2022-11-29T10:55:59.115Z,-20323.72
2022-11-29T10:57:02.282Z,-20321.50
2022-11-29T10:58:28.402Z,-20324.09
2022-11-29T10:59:33.001Z,-20325.03
2022-11-29T11:00:52.746Z,-20325.03
2022-11-29T11:01:55.820Z,-20324.84
2022-11-29T11:03:16.919Z,-20328.34
2022-11-29T11:04:26.481Z,-20325.75
2022-11-29T11:05:29.279Z,-20325.03
2022-11-29T11:06:51.472Z,-20324.66
2022-11-29T11:07:58.666Z,-20326.13
2022-11-29T11:09:31.649Z,-20323.72
2022-11-29T11:10:33.833Z,-20322.06
2022-11-29T11:11:36.023Z,-20324.28
2022-11-29T11:12:38.203Z,-20322.44
2022-11-29T11:13:41.883Z,-20323.00
2022-11-29T11:14:45.401Z,-20324.47
2022-11-29T11:15:47.994Z,-20323.72
2022-11-29T11:16:51.161Z,-20325.56
2022-11-29T11:18:04.747Z,-20328.34
2022-11-29T11:19:39.176Z,-20327.78
2022-11-29T11:20:42.426Z,-20325.75
2022-11-29T11:21:44.600Z,-20324.47
2022-11-29T11:23:02.405Z,-20325.94
2022-11-29T11:24:04.651Z,-20325.38
2022-11-29T11:25:31.564Z,-20328.91
2022-11-29T11:26:45.248Z,-20328.91
2022-11-29T11:27:47.787Z,-20329.25
2022-11-29T11:28:54.824Z,-20330.38
2022-11-29T11:29:57.738Z,-20330.00
2022-11-29T11:31:04.500Z,-20327.78
2022-11-29T11:32:19.997Z,-20331.28
2022-11-29T11:33:24.865Z,-20331.47
2022-11-29T11:34:31.705Z,-20332.78
2022-11-29T11:35:34.075Z,-20330.00
2022-11-29T11:36:36.293Z,-20330.38
2022-11-29T11:37:38.426Z,-20329.09
2022-11-29T11:38:53.984Z,-20330.91
2022-11-29T11:39:59.172Z,-20329.63
2022-11-29T11:41:03.435Z,-20330.75
2022-11-29T11:42:24.417Z,-20331.66
2022-11-29T11:43:26.696Z,-20332.03
2022-11-29T11:44:53.382Z,-20332.03
2022-11-29T11:45:55.784Z,-20332.22
2022-11-29T11:47:00.045Z,-20335.16
2022-11-29T11:48:13.668Z,-20338.31
2022-11-29T11:49:45.828Z,-20336.47
2022-11-29T11:50:57.458Z,-20335.53
2022-11-29T11:52:03.341Z,-20334.44
2022-11-29T11:53:18.310Z,-20333.31
2022-11-29T11:54:20.819Z,-20332.97
2022-11-29T11:55:43.386Z,-20333.69
2022-11-29T11:56:45.640Z,-20335.16
2022-11-29T11:58:10.314Z,-20332.59
2022-11-29T11:59:21.271Z,-20333.88
2022-11-29T12:02:25.340Z,-20333.50
2022-11-29T12:03:43.876Z,-20336.28
2022-11-29T12:04:46.515Z,-20334.44
2022-11-29T12:05:51.415Z,-20333.69
2022-11-29T12:06:57.237Z,-20334.97
2022-11-29T12:08:10.010Z,-20333.16
2022-11-29T12:09:34.384Z,-20337.75
2022-11-29T12:10:40.453Z,-20336.66
2022-11-29T12:12:07.673Z,-20338.50
2022-11-29T12:13:21.134Z,-20338.69
2022-11-29T12:14:47.336Z,-20338.13
2022-11-29T12:15:50.950Z,-20337.94
2022-11-29T12:17:14.322Z,-20337.03
2022-11-29T12:18:30.813Z,-20338.88
2022-11-29T12:19:41.809Z,-20339.59
2022-11-29T12:21:13.098Z,-20339.59
2022-11-29T12:22:22.314Z,-20339.41
2022-11-29T12:23:46.505Z,-20339.03
2022-11-29T12:24:57.072Z,-20338.13
2022-11-29T12:26:06.583Z,-20337.94
2022-11-29T12:27:14.406Z,-20334.81
2022-11-29T12:28:20.850Z,-20334.06
2022-11-29T12:29:25.833Z,-20336.09
2022-11-29T12:30:28.135Z,-20337.03
2022-11-29T12:31:32.870Z,-20336.66
2022-11-29T12:32:52.199Z,-20339.78
2022-11-29T12:34:06.573Z,-20335.91
2022-11-29T12:35:50.262Z,-20336.47
2022-11-29T12:37:04.397Z,-20336.28
2022-11-29T12:38:09.273Z,-20335.72
2022-11-29T12:39:30.064Z,-20337.03
2022-11-29T12:40:57.324Z,-20338.69
2022-11-29T12:42:14.241Z,-20337.03
2022-11-29T12:43:31.555Z,-20339.03
2022-11-29T12:44:48.585Z,-20338.88
2022-11-29T12:46:15.127Z,-20340.16
2022-11-29T12:48:57.864Z,-20338.88
2022-11-29T12:50:12.772Z,-20339.22
2022-11-29T12:51:52.329Z,-20339.97
2022-11-29T12:53:11.261Z,-20341.44
2022-11-29T12:54:40.977Z,-20339.78
2022-11-29T12:56:18.772Z,-20339.59
2022-11-29T12:57:24.052Z,-20337.75
2022-11-29T12:58:51.367Z,-20339.97
2022-11-29T13:00:11.315Z,-20339.59
2022-11-29T13:01:51.146Z,-20339.97
2022-11-29T13:03:08.942Z,-20338.88
2022-11-29T13:05:24.943Z,-20339.78
2022-11-29T13:06:38.683Z,-20338.88
2022-11-29T13:08:08.237Z,-20341.81
2022-11-29T13:09:28.205Z,-20341.81
2022-11-29T13:10:46.013Z,-20341.81
2022-11-29T13:11:56.533Z,-20342.38
2022-11-29T13:13:04.841Z,-20341.06
2022-11-29T13:14:42.629Z,-20342.19
2022-11-29T13:16:08.215Z,-20344.41
2022-11-29T13:17:29.286Z,-20342.75
2022-11-29T13:18:40.243Z,-20344.94
2022-11-29T13:19:53.361Z,-20340.72
2022-11-29T13:21:04.691Z,-20341.06
2022-11-29T13:22:19.873Z,-20342.38
2022-11-29T13:23:45.603Z,-20342.94
2022-11-29T13:25:01.679Z,-20343.09
2022-11-29T13:26:09.856Z,-20343.66
2022-11-29T13:27:19.018Z,-20342.19
2022-11-29T13:28:27.735Z,-20342.56
2022-11-29T13:29:30.679Z,-20340.34
2022-11-29T13:30:35.079Z,-20341.06
2022-11-29T13:31:38.931Z,-20341.25
2022-11-29T13:32:53.060Z,-20341.44
2022-11-29T13:34:08.266Z,-20342.75
2022-11-29T13:35:28.981Z,-20342.38
2022-11-29T13:37:16.126Z,-20342.38
2022-11-29T13:38:21.238Z,-20343.66
2022-11-29T13:39:55.839Z,-20342.56
2022-11-29T13:41:02.327Z,-20342.75
2022-11-29T13:42:13.382Z,-20341.06
2022-11-29T13:43:41.198Z,-20342.19
2022-11-29T13:44:51.252Z,-20341.81
2022-11-29T13:46:14.167Z,-20342.56
2022-11-29T13:47:18.321Z,-20341.44
2022-11-29T13:48:48.634Z,-20341.44
2022-11-29T13:49:57.206Z,-20342.56
2022-11-29T13:51:33.156Z,-20342.94
2022-11-29T13:52:43.137Z,-20343.09